Time;durP1;ratioP1;P1;durP2;ratioP2;P2;SDS_P1;SDS_P2;PMS_P1;PMS_P2;Temp;Humidity;BMP_temperature;BMP_pressure;BME280_temperature;BME280_humidity;BME280_pressure;Samples;Min_cycle;Max_cycle;Signal;HPM_P1;HPM_P2
2020/12/05 00:00:44;;;;;;;43.63;23.87;;;;;;;7.14;100.00;94838.38;5097111;28;20459;-89
2020/12/05 00:03:10;;;;;;;36.87;19.73;;;;;;;7.09;100.00;94831.84;5097127;28;20487;-90
2020/12/05 00:05:37;;;;;;;46.00;24.10;;;;;;;7.18;100.00;94838.16;5097306;28;20444;-90
2020/12/05 00:08:03;;;;;;;46.37;24.40;;;;;;;7.17;100.00;94829.50;5096671;28;21066;-89
2020/12/05 00:10:30;;;;;;;39.53;22.80;;;;;;;7.23;100.00;94841.25;5096600;28;20438;-89
2020/12/05 00:12:56;;;;;;;31.10;19.60;;;;;;;7.18;100.00;94833.78;5096594;28;20832;-90
2020/12/05 00:15:24;;;;;;;33.27;18.20;;;;;;;7.17;100.00;94832.09;5097340;28;20427;-89
2020/12/05 00:17:50;;;;;;;30.50;17.47;;;;;;;7.20;100.00;94837.09;5096454;28;20435;-89
2020/12/05 00:23:01;;;;;;;30.67;19.60;;;;;;;7.22;100.00;94842.22;5095562;28;20480;-90
2020/12/05 00:25:28;;;;;;;26.93;16.50;;;;;;;7.25;100.00;94855.91;5096310;28;20450;-89
2020/12/05 00:27:54;;;;;;;32.87;20.40;;;;;;;7.32;100.00;94849.28;5097239;28;20461;-89
2020/12/05 00:30:21;;;;;;;31.33;19.60;;;;;;;7.32;100.00;94851.88;5096088;28;20452;-90
2020/12/05 00:32:49;;;;;;;26.63;15.73;;;;;;;7.31;100.00;94844.16;5096602;28;20451;-89
2020/12/05 00:35:16;;;;;;;21.73;13.43;;;;;;;7.26;100.00;94849.72;5096549;28;20467;-89
2020/12/05 00:37:42;;;;;;;19.60;12.13;;;;;;;7.29;100.00;94846.91;5096617;28;20490;-89
2020/12/05 00:40:09;;;;;;;24.73;15.20;;;;;;;7.30;100.00;94840.72;5096373;28;20436;-89
2020/12/05 00:42:36;;;;;;;23.00;16.73;;;;;;;7.31;100.00;94847.63;5095930;28;20514;-89
2020/12/05 00:45:02;;;;;;;23.40;15.90;;;;;;;7.31;100.00;94858.06;5095759;28;20438;-89
2020/12/05 00:47:29;;;;;;;24.20;15.60;;;;;;;7.25;100.00;94868.09;5095752;28;20522;-89
2020/12/05 00:49:57;;;;;;;21.67;13.87;;;;;;;7.23;100.00;94865.63;5095951;28;20447;-89
2020/12/05 00:52:23;;;;;;;22.83;13.10;;;;;;;7.28;100.00;94876.56;5096112;28;20871;-89
2020/12/05 00:54:50;;;;;;;24.93;14.80;;;;;;;7.37;100.00;94870.66;5096154;28;20439;-90
2020/12/05 00:57:17;;;;;;;21.73;13.97;;;;;;;7.37;100.00;94870.66;5096232;28;20473;-89
2020/12/05 01:17:23;;;;;;;32.30;18.80;;;;;;;7.53;100.00;94870.38;6222301;22;834818;-87
2020/12/05 01:19:52;;;;;;;30.63;18.93;;;;;;;7.52;100.00;94862.63;6257155;23;20551;-87
2020/12/05 01:22:19;;;;;;;28.37;17.20;;;;;;;7.38;100.00;94863.66;6256738;23;20495;-87
2020/12/05 01:24:46;;;;;;;22.40;15.80;;;;;;;7.21;100.00;94849.19;6257000;23;20523;-87
2020/12/05 01:27:12;;;;;;;31.93;19.60;;;;;;;7.32;100.00;94858.88;6256896;23;20412;-87
2020/12/05 01:29:39;;;;;;;34.93;21.13;;;;;;;7.31;100.00;94863.28;6255312;23;20409;-87
2020/12/05 01:32:05;;;;;;;29.67;17.30;;;;;;;7.46;100.00;94862.13;6257089;23;20416;-86
2020/12/05 01:34:32;;;;;;;30.10;18.53;;;;;;;7.56;100.00;94858.88;6256553;23;20400;-87
2020/12/05 01:36:59;;;;;;;24.03;16.27;;;;;;;7.62;100.00;94858.41;6256774;23;20414;-86
2020/12/05 01:39:25;;;;;;;26.40;17.20;;;;;;;7.61;100.00;94860.19;6256850;23;20405;-87
2020/12/05 01:41:52;;;;;;;23.70;16.40;;;;;;;7.47;100.00;94860.38;6256760;23;20413;-87
2020/12/05 01:44:19;;;;;;;28.40;16.40;;;;;;;7.60;100.00;94865.53;6256760;23;20471;-87
2020/12/05 01:46:47;;;;;;;30.40;17.77;;;;;;;7.65;99.67;94861.63;6256767;23;20460;-87
2020/12/05 01:49:16;;;;;;;30.03;16.57;;;;;;;7.70;99.17;94850.84;6256404;23;20409;-87
2020/12/05 01:51:45;;;;;;;24.43;17.30;;;;;;;7.77;99.23;94857.28;6257376;23;20409;-87
2020/12/05 01:54:12;;;;;;;35.60;18.30;;;;;;;7.81;98.65;94866.56;6256353;23;20890;-87
2020/12/05 01:56:39;;;;;;;29.50;19.23;;;;;;;7.88;98.45;94859.94;6256699;23;20411;-87
2020/12/05 01:59:05;;;;;;;27.10;17.90;;;;;;;7.90;97.90;94860.66;6256419;23;20412;-87
2020/12/05 02:01:33;;;;;;;29.83;17.17;;;;;;;7.89;97.22;94866.81;6256422;23;20411;-87
2020/12/05 02:04:01;;;;;;;31.20;17.80;;;;;;;7.95;97.83;94863.75;6256421;23;20406;-87
2020/12/05 02:06:39;;;;;;;34.53;19.10;;;;;;;7.98;97.57;94855.69;6256296;23;20455;-87
2020/12/05 02:09:14;;;;;;;25.30;16.93;;;;;;;7.92;97.82;94845.69;6256206;23;20401;-87
2020/12/05 02:11:46;;;;;;;30.73;19.37;;;;;;;7.99;97.95;94852.13;6256514;23;20870;-87
2020/12/05 02:14:17;;;;;;;34.33;19.70;;;;;;;7.85;97.84;94867.16;6256273;23;20401;-86
2020/12/05 02:16:43;;;;;;;30.03;19.10;;;;;;;7.86;98.03;94856.59;6252942;23;20430;-86
2020/12/05 02:19:17;;;;;;;33.13;21.53;;;;;;;7.73;98.50;94855.84;6249234;23;20398;-87
2020/12/05 02:21:44;;;;;;;36.37;20.30;;;;;;;7.69;98.67;94854.41;6249228;23;20407;-87
2020/12/05 02:24:12;;;;;;;28.53;19.07;;;;;;;7.67;99.13;94851.06;6249598;23;20398;-87
2020/12/05 02:26:38;;;;;;;23.73;15.50;;;;;;;7.59;100.00;94841.19;6248963;23;20451;-87
2020/12/05 02:29:07;;;;;;;21.20;15.23;;;;;;;7.53;100.00;94839.06;6249388;23;20402;-87
2020/12/05 02:31:34;;;;;;;22.03;14.87;;;;;;;7.64;100.00;94843.47;6249241;23;20433;-86
2020/12/05 02:34:00;;;;;;;41.50;22.40;;;;;;;7.49;100.00;94852.41;6248953;23;20416;-86
2020/12/05 02:36:28;;;;;;;27.93;15.13;;;;;;;7.50;100.00;94854.91;6249120;23;20409;-87
2020/12/05 02:39:01;;;;;;;30.30;17.40;;;;;;;7.50;100.00;94852.31;6249243;23;20627;-86
2020/12/05 02:41:29;;;;;;;31.50;20.43;;;;;;;7.35;100.00;94848.22;6249078;23;20373;-87
2020/12/05 02:43:55;;;;;;;28.20;17.33;;;;;;;7.51;100.00;94853.13;6249160;23;20410;-87
2020/12/05 02:46:22;;;;;;;19.80;14.90;;;;;;;7.50;100.00;94854.91;6249142;23;20448;-86
2020/12/05 02:48:48;;;;;;;22.70;14.70;;;;;;;7.56;100.00;94849.25;6249095;23;20409;-87
2020/12/05 02:51:15;;;;;;;23.67;16.67;;;;;;;7.60;100.00;94855.91;6249159;23;20406;-87
2020/12/05 02:53:41;;;;;;;25.23;14.90;;;;;;;7.58;100.00;94851.75;6249769;23;20405;-86
2020/12/05 02:56:07;;;;;;;18.33;13.50;;;;;;;7.62;100.00;94855.81;6248797;23;20396;-87
2020/12/05 02:58:35;;;;;;;20.00;13.57;;;;;;;7.61;100.00;94851.53;6248853;23;20397;-87
2020/12/05 03:01:01;;;;;;;25.83;17.27;;;;;;;7.68;100.00;94858.78;6249199;23;20389;-87
2020/12/05 03:03:27;;;;;;;29.07;16.23;;;;;;;7.68;100.00;94850.13;6249170;23;20416;-88
2020/12/05 03:05:54;;;;;;;23.00;14.53;;;;;;;7.71;100.00;94849.91;6248474;23;20452;-87
2020/12/05 03:08:20;;;;;;;21.53;14.80;;;;;;;7.66;100.00;94852.03;6249290;23;20394;-88
2020/12/05 03:10:46;;;;;;;19.03;13.90;;;;;;;7.71;100.00;94857.72;6249150;23;20412;-87
2020/12/05 03:13:13;;;;;;;18.00;13.23;;;;;;;7.60;100.00;94850.69;6248602;23;20911;-86
2020/12/05 03:15:40;;;;;;;22.90;14.83;;;;;;;7.67;100.00;94851.06;6248416;23;20441;-87
2020/12/05 03:18:06;;;;;;;27.23;16.23;;;;;;;7.69;100.00;94833.50;6248926;23;20405;-87
2020/12/05 03:20:33;;;;;;;19.33;13.13;;;;;;;7.73;100.00;94846.22;6249205;23;20393;-86
2020/12/05 03:22:59;;;;;;;23.37;14.87;;;;;;;7.81;100.00;94847.47;6248923;23;20440;-87
2020/12/05 03:25:25;;;;;;;15.17;11.70;;;;;;;7.78;100.00;94848.50;6251900;23;20448;-87
2020/12/05 03:27:52;;;;;;;20.23;12.83;;;;;;;7.80;100.00;94846.59;6252535;23;20408;-87
2020/12/05 03:30:18;;;;;;;18.33;12.60;;;;;;;7.85;100.00;94854.13;6252521;23;20405;-86
2020/12/05 03:32:46;;;;;;;20.47;14.17;;;;;;;7.82;100.00;94849.13;6249972;23;20433;-86
2020/12/05 03:35:12;;;;;;;22.27;15.43;;;;;;;7.92;100.00;94863.16;6249516;23;20757;-87
2020/12/05 03:37:39;;;;;;;23.20;15.07;;;;;;;7.99;100.00;94865.19;6248367;23;20397;-87
2020/12/05 03:40:06;;;;;;;23.87;13.93;;;;;;;8.00;99.98;94864.22;6249204;23;20941;-86
2020/12/05 03:42:32;;;;;;;25.00;14.77;;;;;;;8.10;100.00;94868.78;6248612;23;20406;-87
2020/12/05 03:44:59;;;;;;;23.77;15.47;;;;;;;8.20;99.09;94874.97;6248425;23;20528;-87
2020/12/05 03:47:25;;;;;;;23.10;14.20;;;;;;;8.22;99.03;94868.69;6248532;23;20404;-87
2020/12/05 03:49:52;;;;;;;24.73;16.07;;;;;;;8.31;98.51;94872.38;6249084;23;20404;-87
2020/12/05 03:52:19;;;;;;;21.20;15.63;;;;;;;8.32;98.09;94879.25;6248786;23;20421;-87
2020/12/05 03:54:46;;;;;;;18.50;14.33;;;;;;;8.33;97.39;94873.94;6248952;23;20390;-87
2020/12/05 03:57:14;;;;;;;18.50;12.73;;;;;;;8.39;97.54;94875.28;6248726;23;20480;-87
2020/12/05 03:59:40;;;;;;;21.43;13.50;;;;;;;8.46;97.12;94876.47;6248611;23;20415;-87
2020/12/05 04:02:06;;;;;;;14.83;11.70;;;;;;;8.43;96.29;94874.09;6249738;23;20519;-87
2020/12/05 04:04:33;;;;;;;18.90;12.30;;;;;;;8.45;96.58;94873.97;6248664;23;20433;-86
2020/12/05 04:07:00;;;;;;;14.77;11.63;;;;;;;8.43;96.06;94891.56;6248610;23;20441;-88
2020/12/05 04:09:26;;;;;;;19.53;12.60;;;;;;;8.40;96.07;94884.78;6248961;23;20417;-87
2020/12/05 04:11:53;;;;;;;23.43;13.23;;;;;;;8.35;96.62;94894.75;6248158;23;20397;-87
2020/12/05 04:14:19;;;;;;;20.83;12.27;;;;;;;8.24;96.94;94886.84;6248224;23;20400;-87
2020/12/05 04:16:45;;;;;;;14.30;10.70;;;;;;;8.08;97.73;94885.38;6248982;23;20427;-87
2020/12/05 04:19:12;;;;;;;36.00;23.00;;;;;;;7.85;98.56;94886.28;6248951;23;20776;-87
2020/12/05 04:21:38;;;;;;;28.17;15.33;;;;;;;7.61;100.00;94898.53;6248171;23;20404;-87
2020/12/05 04:24:05;;;;;;;30.17;16.87;;;;;;;7.64;100.00;94890.47;6248434;23;20434;-86
2020/12/05 04:26:32;;;;;;;27.93;16.60;;;;;;;7.65;100.00;94892.13;6248342;23;20927;-87
2020/12/05 04:28:58;;;;;;;25.23;16.00;;;;;;;7.57;100.00;94902.31;6248076;23;20418;-86
2020/12/05 04:31:24;;;;;;;21.90;14.27;;;;;;;7.57;100.00;94897.94;6248305;23;20418;-86
2020/12/05 04:33:51;;;;;;;24.67;16.00;;;;;;;7.46;100.00;94896.06;6248398;23;20410;-87
2020/12/05 04:36:17;;;;;;;90.17;42.77;;;;;;;7.46;100.00;94898.69;6248453;23;20490;-86
2020/12/05 04:38:43;;;;;;;16.87;11.60;;;;;;;7.42;100.00;94889.41;6248134;23;20461;-86
2020/12/05 04:41:11;;;;;;;20.47;13.67;;;;;;;7.40;100.00;94891.31;6247323;23;20902;-87
2020/12/05 04:43:37;;;;;;;21.47;16.70;;;;;;;7.47;100.00;94889.09;6247881;23;20408;-86
2020/12/05 04:46:04;;;;;;;18.80;13.13;;;;;;;7.43;100.00;94900.69;6248183;23;20440;-87
2020/12/05 04:48:34;;;;;;;23.97;14.40;;;;;;;7.39;100.00;94905.31;6248136;23;20401;-86
2020/12/05 04:51:03;;;;;;;21.30;14.17;;;;;;;7.40;100.00;94900.91;6248302;23;20480;-86
2020/12/05 04:53:31;;;;;;;18.90;13.80;;;;;;;7.33;100.00;94903.16;6248932;23;20722;-86
2020/12/05 04:55:59;;;;;;;28.37;18.00;;;;;;;7.43;100.00;94916.34;6247993;23;20748;-86
2020/12/05 04:58:27;;;;;;;18.83;14.20;;;;;;;7.38;100.00;94910.63;6248205;23;20943;-86
2020/12/05 05:00:55;;;;;;;17.53;14.10;;;;;;;7.40;100.00;94914.81;6248154;23;20480;-86
2020/12/05 05:03:23;;;;;;;21.50;16.90;;;;;;;7.33;100.00;94913.59;6248454;23;20397;-86
2020/12/05 05:05:51;;;;;;;23.47;16.17;;;;;;;7.30;100.00;94916.41;6255412;23;20441;-86
2020/12/05 05:08:18;;;;;;;20.87;16.23;;;;;;;7.37;100.00;94922.84;6249319;23;20940;-85
2020/12/05 05:10:44;;;;;;;26.27;18.23;;;;;;;7.43;100.00;94922.41;6247724;23;20473;-85
2020/12/05 05:13:15;;;;;;;28.40;17.48;;;;;;;7.43;100.00;94927.63;6247094;23;20366;-83
2020/12/05 05:15:43;;;;;;;22.43;14.57;;;;;;;7.44;100.00;94933.69;6247707;23;20190;-82
2020/12/05 05:18:11;;;;;;;36.83;24.70;;;;;;;7.42;100.00;94927.75;6247153;23;20398;-83
2020/12/05 05:20:40;;;;;;;30.10;19.60;;;;;;;7.40;100.00;94924.41;6248359;23;20477;-89
2020/12/05 05:23:11;;;;;;;18.37;13.27;;;;;;;7.54;100.00;94933.88;6247400;23;20909;-87
2020/12/05 05:25:56;;;;;;;19.37;12.60;;;;;;;7.60;100.00;94934.25;6247784;23;20441;-87
2020/12/05 05:28:26;;;;;;;21.23;15.83;;;;;;;7.53;100.00;94942.66;6248715;23;20397;-87
2020/12/05 05:31:12;;;;;;;27.30;19.97;;;;;;;7.53;100.00;94940.03;6248254;23;20435;-86
2020/12/05 05:33:44;;;;;;;16.83;12.50;;;;;;;7.55;100.00;94936.38;6248824;23;20405;-88
2020/12/05 05:36:19;;;;;;;16.80;11.77;;;;;;;7.62;100.00;94932.38;6249045;23;20794;-88
2020/12/05 05:38:56;;;;;;;19.60;11.93;;;;;;;7.66;99.89;94936.44;6248538;23;20464;-93
2020/12/05 05:41:23;;;;;;;20.97;14.60;;;;;;;7.68;99.87;94934.53;6249007;23;20874;-90
2020/12/05 05:43:57;;;;;;;20.83;13.97;;;;;;;7.74;100.00;94941.09;6249054;23;20422;-95
2020/12/05 05:46:27;;;;;;;21.87;13.50;;;;;;;7.72;99.83;94941.19;6249962;23;20430;-94
2020/12/05 05:48:53;;;;;;;29.17;17.27;;;;;;;7.74;99.78;94941.91;6248757;23;20404;-93
2020/12/05 05:51:42;;;;;;;26.60;17.60;;;;;;;7.79;99.61;94944.19;6248858;23;20469;-93
2020/12/05 05:54:20;;;;;;;17.87;13.27;;;;;;;7.77;99.49;94941.69;6248432;23;20406;-95
2020/12/05 05:57:05;;;;;;;22.50;14.77;;;;;;;7.83;99.30;94945.66;6250076;23;20408;-95
2020/12/05 05:59:33;;;;;;;29.33;20.60;;;;;;;7.73;98.78;94939.41;6250442;23;20409;-93
2020/12/05 06:02:02;;;;;;;44.80;28.63;;;;;;;7.76;98.79;94953.06;6250430;23;20389;-94
2020/12/05 06:04:31;;;;;;;27.80;17.07;;;;;;;7.72;99.19;94954.25;6250119;23;20456;-88
2020/12/05 06:06:59;;;;;;;49.90;33.33;;;;;;;7.88;99.52;94961.00;6250654;23;20408;-95
2020/12/05 06:09:28;;;;;;;44.00;32.70;;;;;;;7.74;98.47;94967.19;6251027;23;20241;-94
2020/12/05 06:11:58;;;;;;;41.40;26.40;;;;;;;7.79;99.13;94959.84;6251306;23;20408;-92
2020/12/05 06:14:26;;;;;;;35.57;23.67;;;;;;;7.58;100.00;94961.44;6253040;23;20424;-95
2020/12/05 06:16:55;;;;;;;19.13;13.33;;;;;;;7.48;100.00;94966.47;6250400;23;20461;-95
2020/12/05 06:19:26;;;;;;;16.53;11.87;;;;;;;7.42;100.00;94966.91;6252803;23;20403;-92
2020/12/05 06:21:55;;;;;;;24.57;17.10;;;;;;;7.41;100.00;94962.63;6251348;22;20409;-93
2020/12/05 06:24:44;;;;;;;18.27;11.90;;;;;;;7.42;100.00;94972.13;6249263;22;20424;-92
2020/12/05 06:27:11;;;;;;;17.75;12.00;;;;;;;7.40;100.00;94969.63;6249844;23;20409;-95
2020/12/05 06:29:39;;;;;;;13.73;10.00;;;;;;;7.42;100.00;94972.13;6249615;23;20175;-95
2020/12/05 06:32:06;;;;;;;19.27;14.40;;;;;;;7.34;100.00;94977.06;6249921;23;20465;-92
2020/12/05 06:34:37;;;;;;;18.93;13.30;;;;;;;7.39;100.00;94994.06;6255305;23;20797;-96
2020/12/05 06:37:04;;;;;;;18.73;15.47;;;;;;;7.34;100.00;94995.34;6253475;23;20428;-95
2020/12/05 06:39:33;;;;;;;17.40;10.87;;;;;;;7.28;100.00;94990.56;6247482;22;20409;-87
2020/12/05 06:42:00;;;;;;;16.10;12.90;;;;;;;7.51;100.00;94991.50;6250191;23;20405;-95
2020/12/05 06:44:37;;;;;;;16.23;10.00;;;;;;;7.31;100.00;94999.00;6250957;22;20901;-94
2020/12/05 06:47:06;;;;;;;18.33;10.40;;;;;;;7.22;100.00;94999.63;6225812;23;20437;-90
2020/12/05 06:49:56;;;;;;;18.70;13.10;;;;;;;7.34;100.00;95000.56;6250728;23;20885;-96
2020/12/05 06:52:41;;;;;;;21.97;13.77;;;;;;;7.34;100.00;95006.59;6249363;23;20436;-90
2020/12/05 06:55:17;;;;;;;26.97;17.67;;;;;;;7.43;100.00;94999.91;6249967;23;20411;-90
2020/12/05 06:57:44;;;;;;;20.80;12.60;;;;;;;7.37;100.00;94989.91;6222838;23;20409;-91
2020/12/05 07:00:21;;;;;;;26.03;17.50;;;;;;;7.40;100.00;94995.72;6221728;23;20401;-91
2020/12/05 07:02:54;;;;;;;33.50;15.97;;;;;;;7.56;100.00;94992.03;6248341;23;20459;-91
2020/12/05 07:05:32;;;;;;;20.27;15.00;;;;;;;7.56;100.00;94992.88;6248934;23;20439;-88
2020/12/05 07:08:00;;;;;;;22.07;15.33;;;;;;;7.62;100.00;94997.66;6249023;23;20418;-92
2020/12/05 07:10:48;;;;;;;16.70;13.07;;;;;;;7.68;100.00;95005.03;6249079;23;20411;-92
2020/12/05 07:13:17;;;;;;;18.00;12.80;;;;;;;7.74;99.48;95001.16;6249588;23;20413;-93
2020/12/05 07:15:44;;;;;;;29.50;17.57;;;;;;;7.86;99.15;94996.84;6249060;23;20469;-93
2020/12/05 07:18:18;;;;;;;21.60;13.60;;;;;;;7.89;98.04;94994.00;6249409;23;20891;-93
2020/12/05 07:20:46;;;;;;;21.70;15.43;;;;;;;7.94;97.58;95003.16;6248839;22;20578;-92
2020/12/05 07:23:13;;;;;;;20.90;14.60;;;;;;;8.01;97.26;95012.22;6248205;23;20767;-90
2020/12/05 07:25:41;;;;;;;23.40;14.40;;;;;;;8.12;97.32;95013.25;6249564;23;20445;-91
2020/12/05 07:28:08;;;;;;;19.23;12.50;;;;;;;8.11;96.44;95019.41;6197724;23;20402;-90
2020/12/05 07:30:35;;;;;;;13.13;10.10;;;;;;;8.08;96.89;95023.06;6221971;23;20472;-89
2020/12/05 07:33:08;;;;;;;15.10;12.37;;;;;;;8.17;97.32;95022.41;6248447;23;20440;-91
2020/12/05 07:35:39;;;;;;;19.97;13.47;;;;;;;8.21;96.51;95031.69;6248179;23;20847;-91
2020/12/05 07:38:15;;;;;;;20.80;14.63;;;;;;;8.18;96.66;95033.69;6249604;23;20407;-91
2020/12/05 07:40:42;;;;;;;25.23;14.67;;;;;;;8.22;96.10;95033.34;6249197;23;20428;-91
2020/12/05 07:43:19;;;;;;;16.47;11.83;;;;;;;8.09;97.05;95032.56;6248297;22;20397;-91
2020/12/05 07:45:47;;;;;;;19.90;14.10;;;;;;;8.18;96.63;95029.31;6248080;23;20532;-91
2020/12/05 07:48:15;;;;;;;20.17;14.10;;;;;;;8.29;96.32;95031.13;6248561;23;20412;-93
2020/12/05 07:50:45;;;;;;;19.40;12.80;;;;;;;8.24;96.39;95025.41;6248805;23;20498;-92
2020/12/05 07:53:31;;;;;;;20.97;15.67;;;;;;;8.02;97.31;95033.97;6249770;22;20406;-92
2020/12/05 07:55:58;;;;;;;45.97;23.97;;;;;;;7.95;97.76;95027.53;6248664;23;20421;-90
2020/12/05 07:58:25;;;;;;;25.07;16.70;;;;;;;7.85;99.13;95029.97;6249100;23;20429;-91
2020/12/05 08:00:55;;;;;;;25.40;17.70;;;;;;;7.86;99.27;95033.41;6249523;23;20418;-91
2020/12/05 08:03:49;;;;;;;21.30;15.07;;;;;;;7.80;99.70;95031.22;6249280;23;20485;-90
2020/12/05 08:06:29;;;;;;;33.27;20.60;;;;;;;7.92;99.39;95039.03;6247545;23;20435;-90
2020/12/05 08:09:05;;;;;;;18.47;14.87;;;;;;;7.90;98.89;95034.84;6249126;23;20387;-91
2020/12/05 08:11:47;;;;;;;16.33;11.77;;;;;;;7.96;98.55;95035.25;6248989;23;20413;-93
2020/12/05 08:14:14;;;;;;;19.43;14.70;;;;;;;8.05;98.72;95033.75;6248826;23;20450;-91
2020/12/05 08:16:43;;;;;;;27.57;17.27;;;;;;;8.22;97.83;95049.03;6249035;22;20517;-90
2020/12/05 08:19:09;;;;;;;28.07;18.57;;;;;;;8.30;97.65;95038.00;6248804;23;20413;-90
2020/12/05 08:21:37;;;;;;;29.70;21.63;;;;;;;8.28;97.24;95051.19;6248312;23;20481;-91
2020/12/05 08:24:09;;;;;;;20.13;14.40;;;;;;;8.31;97.13;95055.38;6242467;23;20434;-89
2020/12/05 08:26:36;;;;;;;17.03;12.37;;;;;;;8.19;97.10;95051.88;6238543;23;20442;-88
2020/12/05 08:29:05;;;;;;;16.73;11.93;;;;;;;8.25;97.63;95063.66;6247543;23;20411;-87
2020/12/05 08:31:32;;;;;;;16.23;12.43;;;;;;;8.41;97.25;95056.41;6247930;23;20398;-88
2020/12/05 08:33:59;;;;;;;22.80;14.70;;;;;;;8.59;96.88;95064.66;6252583;23;20407;-90
2020/12/05 08:36:31;;;;;;;25.43;18.40;;;;;;;8.42;96.00;95072.94;6251423;23;20878;-91
2020/12/05 08:39:04;;;;;;;26.60;18.67;;;;;;;8.28;97.39;95071.28;6249907;23;20871;-91
2020/12/05 08:41:40;;;;;;;16.57;12.77;;;;;;;8.33;97.33;95077.00;6256797;22;20418;-90
2020/12/05 08:44:11;;;;;;;19.50;12.90;;;;;;;8.46;96.34;95076.97;6256740;23;20410;-88
2020/12/05 08:46:38;;;;;;;16.20;12.40;;;;;;;8.48;96.19;95081.16;6253550;23;20449;-90
2020/12/05 08:49:15;;;;;;;15.90;12.07;;;;;;;8.62;95.44;95078.34;6252437;23;20418;-90
2020/12/05 08:51:48;;;;;;;25.73;14.63;;;;;;;8.65;95.17;95083.34;6252904;23;20409;-92
2020/12/05 08:54:16;;;;;;;18.73;13.57;;;;;;;8.78;94.91;95077.22;6255732;23;20393;-88
2020/12/05 08:57:19;;;;;;;16.07;11.27;;;;;;;8.74;94.26;95078.41;6257552;23;20411;-88
2020/12/05 08:59:48;;;;;;;20.77;14.30;;;;;;;8.76;94.72;95085.19;6255252;22;20414;-90
2020/12/05 09:02:16;;;;;;;25.80;16.60;;;;;;;8.76;94.11;95092.19;6257334;22;20993;-87
2020/12/05 09:04:43;;;;;;;28.80;18.57;;;;;;;8.84;94.33;95084.59;6255039;23;20950;-90
2020/12/05 09:07:11;;;;;;;31.03;19.30;;;;;;;8.76;94.03;95085.19;6249343;23;20448;-91
2020/12/05 09:09:39;;;;;;;22.07;14.90;;;;;;;8.66;94.51;95087.63;6249169;23;20436;-89
2020/12/05 09:12:09;;;;;;;19.57;14.37;;;;;;;8.56;94.84;95081.41;6248683;23;20491;-90
2020/12/05 09:14:37;;;;;;;20.97;12.73;;;;;;;8.69;94.85;95087.44;6249817;23;20681;-89
2020/12/05 09:17:04;;;;;;;27.20;17.37;;;;;;;8.74;94.76;95081.00;6249272;23;20438;-91
2020/12/05 09:19:32;;;;;;;28.87;19.40;;;;;;;8.78;94.48;95085.06;6248615;23;20765;-89
2020/12/05 09:21:59;;;;;;;24.40;12.90;;;;;;;8.68;94.00;95085.75;6249571;23;20740;-90
2020/12/05 09:24:25;;;;;;;20.57;12.83;;;;;;;8.66;94.90;95082.41;6248359;23;20401;-90
2020/12/05 09:26:54;;;;;;;21.63;12.67;;;;;;;8.67;94.84;95084.09;6248919;23;20446;-91
2020/12/05 09:29:21;;;;;;;26.33;15.13;;;;;;;8.72;95.37;95091.59;6250685;23;20435;-91
2020/12/05 09:31:49;;;;;;;33.27;19.10;;;;;;;8.84;95.07;95087.22;6250652;23;20428;-90
2020/12/05 09:34:16;;;;;;;29.90;15.50;;;;;;;8.88;94.67;95086.03;6250379;23;20491;-90
2020/12/05 09:36:42;;;;;;;26.10;17.03;;;;;;;8.93;94.46;95089.97;6250431;23;20432;-89
2020/12/05 09:39:09;;;;;;;34.80;20.43;;;;;;;8.95;94.46;95088.06;6250482;23;20391;-88
2020/12/05 09:41:37;;;;;;;23.63;15.37;;;;;;;8.89;94.13;95083.31;6251073;23;20392;-91
2020/12/05 09:44:04;;;;;;;12.63;10.07;;;;;;;8.77;94.79;95078.16;6263028;23;20967;-87
2020/12/05 09:46:31;;;;;;;16.13;10.07;;;;;;;8.69;94.52;95071.72;6252162;23;20945;-92
2020/12/05 09:48:58;;;;;;;16.87;10.33;;;;;;;8.76;95.28;95071.25;6251881;23;20402;-91
2020/12/05 09:51:24;;;;;;;16.73;11.97;;;;;;;8.79;95.14;95081.50;6251512;23;20407;-91
2020/12/05 09:53:51;;;;;;;20.03;14.37;;;;;;;8.85;95.05;95083.66;6250745;23;20412;-91
2020/12/05 09:56:18;;;;;;;21.60;13.50;;;;;;;8.90;94.52;95086.75;6250004;23;20394;-91
2020/12/05 09:58:44;;;;;;;19.57;12.37;;;;;;;8.95;94.61;95080.22;6250520;23;20407;-92
2020/12/05 10:01:10;;;;;;;19.20;11.77;;;;;;;9.00;94.54;95079.91;6250784;23;20453;-91
2020/12/05 10:03:38;;;;;;;19.83;14.93;;;;;;;9.08;94.44;95076.69;6250033;22;20485;-89
2020/12/05 10:06:04;;;;;;;17.33;12.97;;;;;;;8.99;94.65;95067.75;6250064;22;20442;-93
2020/12/05 10:08:31;;;;;;;15.60;12.50;;;;;;;8.89;94.68;95066.75;6250474;22;20460;-91
2020/12/05 10:10:58;;;;;;;20.70;14.90;;;;;;;8.82;94.87;95058.56;6249182;23;20401;-94
2020/12/05 10:13:24;;;;;;;18.37;15.80;;;;;;;8.82;95.82;95063.78;6245882;23;20176;-90
2020/12/05 10:15:51;;;;;;;25.60;17.73;;;;;;;8.95;94.88;95061.91;6239428;23;20541;-90
2020/12/05 10:18:19;;;;;;;20.67;15.40;;;;;;;8.84;95.75;95071.50;6225407;23;20437;-94
2020/12/05 10:20:47;;;;;;;22.70;14.23;;;;;;;8.94;95.31;95060.22;6225574;23;20409;-94
2020/12/05 10:23:14;;;;;;;30.80;21.50;;;;;;;8.95;95.20;95071.53;6251522;23;20429;-95
2020/12/05 10:25:44;;;;;;;16.43;12.50;;;;;;;8.94;95.00;95075.09;6252175;22;20408;-94
2020/12/05 10:28:11;;;;;;;16.90;11.60;;;;;;;8.82;95.53;95066.41;6253404;23;20768;-85
2020/12/05 10:30:38;;;;;;;26.33;16.73;;;;;;;8.85;95.47;95066.16;6227495;23;20440;-88
2020/12/05 10:33:05;;;;;;;18.03;12.03;;;;;;;8.72;96.18;95059.38;6250615;22;20404;-90
2020/12/05 10:35:32;;;;;;;20.20;16.10;;;;;;;8.72;97.44;95054.13;6248392;23;20478;-88
2020/12/05 10:38:00;;;;;;;14.93;10.50;;;;;;;8.80;96.51;95062.22;6248882;22;20436;-87
2020/12/05 10:40:26;;;;;;;19.33;12.80;;;;;;;8.80;96.73;95059.63;6249475;23;20504;-92
2020/12/05 10:42:53;;;;;;;17.27;11.57;;;;;;;8.93;96.19;95053.31;6250532;23;20407;-89
2020/12/05 10:45:21;;;;;;;18.17;14.53;;;;;;;8.93;95.43;95053.31;6225351;23;20402;-94
2020/12/05 10:47:48;;;;;;;22.40;15.70;;;;;;;9.00;95.85;95043.25;6252785;23;20518;-92
2020/12/05 10:50:15;;;;;;;18.33;11.93;;;;;;;8.90;96.52;95037.88;6253758;22;20431;-89
2020/12/05 10:52:44;;;;;;;14.20;10.73;;;;;;;8.91;96.12;95043.94;6257253;23;20425;-94
2020/12/05 10:55:12;;;;;;;19.33;14.47;;;;;;;8.87;95.72;95058.19;6254999;22;20410;-95
2020/12/05 10:57:39;;;;;;;28.33;18.20;;;;;;;8.88;95.51;95037.16;6254334;23;20411;-96
2020/12/05 11:00:13;;;;;;;27.00;14.17;;;;;;;8.96;95.88;95044.41;6235752;23;20411;-96
2020/12/05 11:02:41;;;;;;;24.10;14.80;;;;;;;8.98;95.34;95047.78;6258233;23;20428;-96
2020/12/05 11:05:08;;;;;;;13.77;10.50;;;;;;;8.84;95.88;95042.72;6256366;22;20419;-95
2020/12/05 11:07:58;;;;;;;17.77;13.30;;;;;;;8.78;96.60;95048.44;6255522;23;20519;-95
2020/12/05 11:10:25;;;;;;;17.70;12.10;;;;;;;8.84;95.44;95033.09;6259075;23;20443;-96
2020/12/05 11:12:54;;;;;;;23.10;16.97;;;;;;;8.89;96.01;95036.19;6254214;22;20410;-96
2020/12/05 11:15:29;;;;;;;23.87;16.60;;;;;;;8.76;96.67;95039.88;6254023;23;20462;-96
2020/12/05 11:17:57;;;;;;;19.40;12.33;;;;;;;8.81;95.84;95040.34;6257210;23;20908;-96
2020/12/05 11:20:24;;;;;;;21.37;14.77;;;;;;;8.94;95.66;95034.06;6257653;22;20411;-96
2020/12/05 11:25:46;;;;;;;;;;;;;;;;;;;;;
2020/12/05 11:28:13;;;;;;;24.40;16.43;;;;;;;8.76;96.86;95025.00;6256648;22;20395;-93
2020/12/05 11:30:45;;;;;;;29.33;16.90;;;;;;;8.64;97.95;95031.13;6258178;22;20474;-96
2020/12/05 11:33:14;;;;;;;20.07;12.27;;;;;;;8.60;97.73;95033.16;6257651;23;20413;-95
2020/12/05 11:35:41;;;;;;;20.57;13.27;;;;;;;8.55;98.29;95037.91;6258498;22;20418;-95
2020/12/05 11:38:08;;;;;;;22.87;16.60;;;;;;;8.55;98.84;95035.28;6253237;23;20415;-96
2020/12/05 11:40:39;;;;;;;26.70;14.23;;;;;;;8.55;99.18;95040.50;6255329;23;20430;-96
2020/12/05 11:43:05;;;;;;;30.73;16.73;;;;;;;8.60;98.94;95033.16;6253939;22;20408;-96
2020/12/05 11:45:35;;;;;;;28.92;17.45;;;;;;;8.64;98.96;95039.00;6250998;23;20452;-95
2020/12/05 11:50:37;;;;;;;21.90;15.67;;;;;;;8.58;98.93;95029.81;6193501;22;20445;-96
2020/12/05 11:53:06;;;;;;;29.77;19.33;;;;;;;8.55;99.76;95032.66;6226928;23;20416;-96
2020/12/05 11:55:32;;;;;;;27.37;15.70;;;;;;;8.61;99.43;95031.38;6225754;23;20418;-86